地図

経路データ

SID SEASON NUMBER BASIN SUBBASIN NAME ISO_TIME NATURE LAT LON WMO_WIND WMO_PRES WMO_AGENCY TRACK_TYPE DIST2LAND LANDFALL IFLAG USA_AGENCY USA_ATCF_ID USA_LAT USA_LON USA_RECORD USA_STATUS USA_WIND USA_PRES USA_SSHS USA_R34_NE USA_R34_SE USA_R34_SW USA_R34_NW USA_R50_NE USA_R50_SE USA_R50_SW USA_R50_NW USA_R64_NE USA_R64_SE USA_R64_SW USA_R64_NW USA_POCI USA_ROCI USA_RMW USA_EYE TOKYO_LAT TOKYO_LON TOKYO_GRADE TOKYO_WIND TOKYO_PRES TOKYO_R50_DIR TOKYO_R50_LONG TOKYO_R50_SHORT TOKYO_R30_DIR TOKYO_R30_LONG TOKYO_R30_SHORT TOKYO_LAND CMA_LAT CMA_LON CMA_CAT CMA_WIND CMA_PRES HKO_LAT HKO_LON HKO_CAT HKO_WIND HKO_PRES NEWDELHI_LAT NEWDELHI_LON NEWDELHI_GRADE NEWDELHI_WIND NEWDELHI_PRES NEWDELHI_CI NEWDELHI_DP NEWDELHI_POCI REUNION_LAT REUNION_LON REUNION_TYPE REUNION_WIND REUNION_PRES REUNION_TNUM REUNION_CI REUNION_RMW REUNION_R34_NE REUNION_R34_SE REUNION_R34_SW REUNION_R34_NW REUNION_R50_NE REUNION_R50_SE REUNION_R50_SW REUNION_R50_NW REUNION_R64_NE REUNION_R64_SE REUNION_R64_SW REUNION_R64_NW BOM_LAT BOM_LON BOM_TYPE BOM_WIND BOM_PRES BOM_TNUM BOM_CI BOM_RMW BOM_R34_NE BOM_R34_SE BOM_R34_SW BOM_R34_NW BOM_R50_NE BOM_R50_SE BOM_R50_SW BOM_R50_NW BOM_R64_NE BOM_R64_SE BOM_R64_SW BOM_R64_NW BOM_ROCI BOM_POCI BOM_EYE BOM_POS_METHOD BOM_PRES_METHOD NADI_LAT NADI_LON NADI_CAT NADI_WIND NADI_PRES WELLINGTON_LAT WELLINGTON_LON WELLINGTON_WIND WELLINGTON_PRES DS824_LAT DS824_LON DS824_STAGE DS824_WIND DS824_PRES TD9636_LAT TD9636_LON TD9636_STAGE TD9636_WIND TD9636_PRES TD9635_LAT TD9635_LON TD9635_WIND TD9635_PRES TD9635_ROCI NEUMANN_LAT NEUMANN_LON NEUMANN_CLASS NEUMANN_WIND NEUMANN_PRES MLC_LAT MLC_LON MLC_CLASS MLC_WIND MLC_PRES USA_GUST BOM_GUST BOM_GUST_PER REUNION_GUST REUNION_GUST_PER USA_SEAHGT USA_SEARAD_NE USA_SEARAD_SE USA_SEARAD_SW USA_SEARAD_NW STORM_SPEED STORM_DIR
1990271N13153 1990 94 WP MM HATTIE 1990-09-28 06:00:00 NR 12.7000 153.200 main 1744 1740 O_____________ jtwc_wp WP221990 12.7000 153.200 15 -1 6 287
1990271N13153 1990 94 WP MM HATTIE 1990-09-28 09:00:00 NR 12.7901 152.890 main 1750 1747 P_____________ WP221990 12.7901 152.890 15 -1 6 289
1990271N13153 1990 94 WP MM HATTIE 1990-09-28 12:00:00 NR 12.9000 152.600 main 1757 1756 O_____________ jtwc_wp WP221990 12.9000 152.600 15 -1 6 295
1990271N13153 1990 94 WP MM HATTIE 1990-09-28 15:00:00 NR 13.0425 152.342 main 1765 1765 P_____________ WP221990 13.0425 152.342 15 -1 6 302
1990271N13153 1990 94 WP MM HATTIE 1990-09-28 18:00:00 NR 13.2000 152.100 main 1786 1785 O_____________ jtwc_wp WP221990 13.2000 152.100 15 -1 6 303
1990271N13153 1990 94 WP MM HATTIE 1990-09-28 21:00:00 NR 13.3575 151.850 main 1806 1800 P_____________ WP221990 13.3575 151.850 15 -1 6 302
1990271N13153 1990 94 WP MM HATTIE 1990-09-29 00:00:00 NR 13.5000 151.600 main 1808 1805 O_____________ jtwc_wp WP221990 13.5000 151.600 15 -1 6 297
1990271N13153 1990 94 WP MM HATTIE 1990-09-29 03:00:00 NR 13.6075 151.342 main 1810 1808 P_____________ WP221990 13.6075 151.342 15 -1 5 292
1990271N13153 1990 94 WP MM HATTIE 1990-09-29 06:00:00 NR 13.7000 151.100 main 1816 1814 O_____________ jtwc_wp WP221990 13.7000 151.100 15 -1 5 293
1990271N13153 1990 94 WP MM HATTIE 1990-09-29 09:00:00 NR 13.8000 150.878 main 1822 1820 P_____________ WP221990 13.8000 150.878 15 -1 4 297
1990271N13153 1990 94 WP MM HATTIE 1990-09-29 12:00:00 NR 13.9000 150.700 main 1829 1826 O_____________ jtwc_wp WP221990 13.9000 150.700 15 -1 3 306
1990271N13153 1990 94 WP MM HATTIE 1990-09-29 15:00:00 NR 14.0000 150.592 main 1837 1835 P_____________ WP221990 14.0000 150.592 17 -1 3 316
1990271N13153 1990 94 WP MM HATTIE 1990-09-29 18:00:00 NR 14.1000 150.500 main 1846 1844 O_____________ jtwc_wp WP221990 14.1000 150.500 20 -1 3 312
1990271N13153 1990 94 WP MM HATTIE 1990-09-29 21:00:00 NR 14.2000 150.365 main 1855 1853 P_____________ WP221990 14.2000 150.365 20 -1 4 304
1990271N13153 1990 94 WP MM HATTIE 1990-09-30 00:00:00 NR 14.3000 150.200 main 1863 1859 O_____________ jtwc_wp WP221990 14.3000 150.200 20 -1 4 299
1990271N13153 1990 94 WP MM HATTIE 1990-09-30 03:00:00 NR 14.4000 150.000 main 1870 1870 P_____________ WP221990 14.4000 150.000 22 -1 8 335
1990271N13153 1990 94 WP MM HATTIE 1990-09-30 06:00:00 TS 15.0000 149.867 1004 tokyo main 1935 1935 OOO___________ jtwc_wp WP221990 14.5000 149.800 25 -1 16.0000 150.000 2 1004 0 0 0 16.0000 150.000 0 19 1002 9 340
1990271N13153 1990 94 WP MM HATTIE 1990-09-30 09:00:00 TS 15.2050 149.701 main 1954 1951 PPP___________ WP221990 14.6000 149.650 25 -1 15.8100 149.752 2 1004 0 0 15.8100 149.752 0 21 1001 4 304
1990271N13153 1990 94 WP MM HATTIE 1990-09-30 12:00:00 TS 15.2400 149.500 1004 tokyo main 1951 1949 OOO___________ jtwc_wp WP221990 14.7000 149.500 25 -1 15.6000 149.500 2 1004 0 0 0 15.6000 149.500 1 23 1000 4 266
1990271N13153 1990 94 WP MM HATTIE 1990-09-30 15:00:00 TS 15.1775 149.267 main 1949 1934 PPP___________ WP221990 14.7925 149.315 27 -1 15.3700 149.242 2 1003 0 0 15.3700 149.242 1 23 1000 5 253
1990271N13153 1990 94 WP MM HATTIE 1990-09-30 18:00:00 TS 15.1000 149.033 1002 tokyo main 1934 1933 OOO___________ jtwc_wp WP221990 14.9000 149.100 30 -1 15.2000 149.000 2 1002 0 0 0 15.2000 149.000 1 23 1000 4 262
1990271N13153 1990 94 WP MM HATTIE 1990-09-30 21:00:00 TS 15.1174 148.822 main 1933 1932 PPP___________ WP221990 15.0425 148.865 30 -1 15.1549 148.800 2 1001 0 0 15.1549 148.800 1 26 1000 4 283
1990271N13153 1990 94 WP MM HATTIE 1990-10-01 00:00:00 TS 15.2000 148.600 1000 tokyo main 1942 1941 OOO___________ jtwc_wp WP221990 15.2000 148.600 30 -1 15.2000 148.600 2 1000 0 0 0 15.2000 148.600 1 29 1000 5 291
1990271N13153 1990 94 WP MM HATTIE 1990-10-01 03:00:00 TS 15.2992 148.341 main 1951 1951 PPP___________ WP221990 15.3574 148.322 30 -1 15.2700 148.350 2 1000 0 0 15.2700 148.350 1 29 1000 6 294
1990271N13153 1990 94 WP MM HATTIE 1990-10-01 06:00:00 TS 15.4333 148.067 1000 tokyo main 1961 1961 OOO___________ jtwc_wp WP221990 15.5000 148.000 30 -1 15.4000 148.100 2 1000 0 0 0 15.4000 148.100 1 29 1000 5 301
1990271N13153 1990 94 WP MM HATTIE 1990-10-01 09:00:00 TS 15.5696 147.867 main 1983 1983 PPP___________ WP221990 15.5849 147.637 32 -1 15.5620 147.982 2 999 0 0 15.5620 147.982 1 29 1000 6 303
1990271N13153 1990 94 WP MM HATTIE 1990-10-01 12:00:00 TS 15.7846 147.508 35 998 tokyo main 2005 2005 OOOO__________ jtwc_wp WP221990 15.7000 147.200 35 0 15.8000 147.700 3 35 998 0 9 50 50 0 15.8000 147.700 1 29 1000 16.0000 147.200 TD 30 995 11 298
1990271N13153 1990 94 WP MM HATTIE 1990-10-01 15:00:00 TS 16.1017 146.839 main 2038 2038 PPPP__________ WP221990 15.9349 146.688 37 0 16.1429 146.990 3 37 996 0 9 62 62 16.1430 146.983 1 33 997 16.2704 146.550 TD 30 995 15 295
1990271N13153 1990 94 WP MM HATTIE 1990-10-01 18:00:00 TS 16.4200 146.060 40 994 tokyo main 2073 2073 OOOO__________ jtwc_wp WP221990 16.2000 146.100 40 0 16.5000 146.100 3 40 994 0 9 75 75 0 16.5000 146.100 2 38 995 16.5000 145.900 TD 30 995 15 291
1990271N13153 1990 94 WP MM HATTIE 1990-10-01 21:00:00 TS 16.6654 145.341 main 2093 2057 PPPP__________ WP221990 16.4073 145.480 42 0 16.7873 145.292 3 42 992 0 9 100 100 16.8021 145.343 2 38 995 16.6648 145.250 TD 30 995 14 287
1990271N13153 1990 94 WP MM HATTIE 1990-10-02 00:00:00 TS 16.8500 144.625 45 990 tokyo main 2042 2003 OOOO__________ jtwc_wp WP221990 16.6000 144.800 45 0 17.0000 144.500 3 45 990 0 9 125 125 0 17.0000 144.600 2 38 995 16.8000 144.600 TD 30 995 14 282
1990271N13153 1990 94 WP MM HATTIE 1990-10-02 03:00:00 TS 16.9567 143.890 main 2003 1965 PPPP__________ WP221990 16.7924 144.065 47 0 17.0998 143.727 3 47 987 0 9 125 125 16.9925 143.819 2 43 992 16.9423 143.950 TD 32 992 14 279
1990271N13153 1990 94 WP MM HATTIE 1990-10-02 06:00:00 TS 17.0750 143.175 50 985 tokyo main 1965 1922 OOOO__________ jtwc_wp WP221990 17.0000 143.300 50 0 17.2000 143.000 4 50 985 0 9 125 125 0 17.0000 143.100 3 48 990 17.1000 143.300 TS 35 990 14 284
1990271N13153 1990 94 WP MM HATTIE 1990-10-02 09:00:00 TS 17.2965 142.516 main 1914 1859 PPPP__________ WP221990 17.2346 142.557 52 0 17.4271 142.335 4 52 982 0 9 137 137 17.2546 142.513 3 48 987 17.2697 142.657 TS 40 987 13 292
1990271N13153 1990 94 WP MM HATTIE 1990-10-02 12:00:00 TS 17.5750 141.875 55 980 tokyo main 1862 1807 OOOO__________ jtwc_wp WP221990 17.5000 141.800 55 0 17.7000 141.700 4 55 980 9 30 30 9 150 150 0 17.6000 142.000 3 48 985 17.5000 142.000 TS 45 985 13 295
1990271N13153 1990 94 WP MM HATTIE 1990-10-02 15:00:00 TS 17.8708 141.239 main 1801 1740 PPPP__________ WP221990 17.7924 141.000 57 0 17.9496 141.065 4 57 977 9 40 40 9 150 150 17.9065 141.567 3 53 982 17.8347 141.323 TS 47 982 14 295
1990271N13153 1990 94 WP MM HATTIE 1990-10-02 18:00:00 TS 18.1750 140.550 60 975 tokyo main 1740 1679 OOOO__________ jtwc_wp WP221990 18.1000 140.200 60 0 18.2000 140.400 4 60 975 9 50 50 9 150 150 0 18.2000 141.000 3 58 980 18.2000 140.600 STS 50 980 15 291
1990271N13153 1990 94 WP MM HATTIE 1990-10-02 21:00:00 TS 18.4256 139.747 main 1673 1602 PPPP__________ WP221990 18.3770 139.449 62 0 18.4124 139.664 4 62 972 9 55 55 9 150 150 18.4209 140.044 3 63 975 18.4921 139.829 STS 52 977 17 289
1990271N13153 1990 94 WP MM HATTIE 1990-10-03 00:00:00 TS 18.7250 138.900 65 970 tokyo main 1602 1522 OOOO__________ jtwc_wp WP221990 18.7000 138.700 65 1 18.7000 138.900 5 65 970 9 60 60 9 150 150 0 18.7000 139.000 4 68 970 18.8000 139.000 STS 55 975 17 296
1990271N13153 1990 94 WP MM HATTIE 1990-10-03 03:00:00 TS 19.1701 138.099 main 1512 1434 PPPP__________ WP221990 19.1272 137.915 67 1 19.1918 138.180 5 67 967 9 60 60 9 150 150 19.1840 138.185 4 68 970 19.1773 138.115 STS 55 975 18 301
1990271N13153 1990 94 WP MM HATTIE 1990-10-03 06:00:00 TS 19.6500 137.275 70 965 tokyo main 1424 1354 OOOO__________ jtwc_wp WP221990 19.6000 137.100 70 1 19.7000 137.400 5 70 965 9 60 60 9 150 150 0 19.7000 137.400 4 68 970 19.6000 137.200 STS 55 975 18 298
1990271N13153 1990 94 WP MM HATTIE 1990-10-03 09:00:00 TS 20.0467 136.378 main 1354 1277 PPPP__________ WP221990 20.0573 136.250 72 1 20.0228 136.457 5 70 962 9 60 60 9 150 150 20.0570 136.529 4 68 967 20.0499 136.277 STS 55 975 19 295
1990271N13153 1990 94 WP MM HATTIE 1990-10-03 12:00:00 TS 20.4250 135.475 70 960 tokyo main 1277 1207 OOOO__________ jtwc_wp WP221990 20.5000 135.400 75 1 20.3000 135.500 5 70 960 9 60 60 9 150 150 0 20.4000 135.600 4 68 965 20.5000 135.400 STS 55 975 18 295
1990271N13153 1990 94 WP MM HATTIE 1990-10-03 15:00:00 TS 20.8192 134.603 main 1203 1137 PPPP__________ WP221990 20.9073 134.570 77 1 20.6194 134.669 5 70 960 9 60 60 9 162 162 20.8506 134.556 4 72 962 20.8994 134.619 STS 55 975 18 297
1990271N13153 1990 94 WP MM HATTIE 1990-10-03 18:00:00 TS 21.2250 133.800 70 960 tokyo main 1137 1076 OOOO__________ jtwc_wp WP221990 21.3000 133.800 80 1 21.0000 133.900 5 70 960 9 60 60 9 175 175 0 21.3000 133.600 4 77 960 21.3000 133.900 STS 55 975 16 300
1990271N13153 1990 94 WP MM HATTIE 1990-10-03 21:00:00 TS 21.6438 133.098 main 1076 1009 PPPP__________ WP221990 21.7070 133.120 85 2 21.4848 133.128 5 72 957 9 60 60 9 187 187 21.6338 132.954 4 77 960 21.7496 133.192 STS 57 975 15 304
1990271N13153 1990 94 WP MM HATTIE 1990-10-04 00:00:00 TS 22.0750 132.450 75 955 tokyo main 1009 955 OOOO__________ jtwc_wp WP221990 22.1000 132.500 90 2 22.0000 132.400 5 75 955 9 60 60 9 200 200 0 22.0000 132.400 4 77 960 22.2000 132.500 STS 60 975 15 306
1990271N13153 1990 94 WP MM HATTIE 1990-10-04 03:00:00 TS 22.5331 131.763 main 955 905 PPPP__________ WP221990 22.4647 131.892 90 2 22.4723 131.712 5 75 955 9 60 60 9 212 212 22.5654 131.671 4 77 960 22.6300 131.778 STS 60 975 15 306
1990271N13153 1990 94 WP MM HATTIE 1990-10-04 06:00:00 TS 22.9500 131.125 75 955 tokyo main 894 871 OOOO__________ jtwc_wp WP221990 22.8000 131.300 90 2 22.9000 131.100 5 75 955 9 60 60 9 225 225 0 23.1000 131.000 4 77 960 23.0000 131.100 STS 60 975 13 304
1990271N13153 1990 94 WP MM HATTIE 1990-10-04 09:00:00 TS 23.2633 130.595 main 859 837 PPPP__________ WP221990 23.1073 130.700 90 2 23.2796 130.577 5 75 955 9 60 60 9 237 237 23.3943 130.576 4 77 960 23.2720 130.527 STS 62 972 11 301
1990271N13153 1990 94 WP MM HATTIE 1990-10-04 12:00:00 TS 23.5250 130.100 75 955 tokyo main 837 780 OOOO__________ jtwc_wp WP221990 23.4000 130.100 90 2 23.6000 130.100 5 75 955 9 60 60 9 250 250 0 23.6000 130.200 4 77 960 23.5000 130.000 T 65 970 11 299
1990271N13153 1990 94 WP MM HATTIE 1990-10-04 15:00:00 TS 23.7932 129.537 main 770 716 PPPP__________ WP221990 23.7076 129.470 90 2 23.8650 129.585 5 75 955 9 60 60 9 250 250 23.8501 129.665 4 77 960 23.7500 129.427 T 65 970 11 298
1990271N13153 1990 94 WP MM HATTIE 1990-10-04 18:00:00 TS 24.0500 129.000 75 955 tokyo main 714 671 OOOO__________ jtwc_wp WP221990 24.0000 128.900 90 2 24.1000 129.100 5 75 955 9 60 60 9 250 250 0 24.1000 129.100 4 77 960 24.0000 128.900 T 65 970 10 299
1990271N13153 1990 94 WP MM HATTIE 1990-10-04 21:00:00 TS 24.3017 128.535 main 661 628 PPPP__________ WP221990 24.2498 128.447 90 2 24.3498 128.677 5 77 952 9 67 67 9 250 250 24.3575 128.570 4 77 960 24.2499 128.447 T 67 967 9 303
1990271N13153 1990 94 WP MM HATTIE 1990-10-05 00:00:00 TS 24.5500 128.150 80 950 tokyo main 626 584 OOOO__________ jtwc_wp WP221990 24.5000 128.100 90 2 24.6000 128.300 5 80 950 9 75 75 9 250 250 0 24.6000 128.100 4 77 960 24.5000 128.100 T 70 965 8 307
1990271N13153 1990 94 WP MM HATTIE 1990-10-05 03:00:00 TS 24.7849 127.823 main 584 563 PPPP__________ WP221990 24.7849 127.812 90 2 24.8500 127.913 5 80 950 9 75 75 9 250 250 24.7774 127.690 4 77 960 24.7273 127.877 T 70 965 7 314
1990271N13153 1990 94 WP MM HATTIE 1990-10-05 06:00:00 TS 25.0500 127.575 80 950 tokyo main 563 543 OOOO__________ jtwc_wp WP221990 25.1000 127.600 90 2 25.1000 127.600 5 80 950 9 75 75 9 250 250 0 25.0000 127.400 4 77 960 25.0000 127.700 T 70 965 7 326
1990271N13153 1990 94 WP MM HATTIE 1990-10-05 09:00:00 TS 25.3624 127.388 main 544 535 PPPP__________ WP221990 25.4349 127.427 90 2 25.2974 127.420 5 80 950 9 82 82 9 262 262 25.3549 127.262 4 77 957 25.3626 127.443 T 72 962 8 337
1990271N13153 1990 94 WP MM HATTIE 1990-10-05 12:00:00 TS 25.7500 127.250 80 950 tokyo main 539 525 OOOO__________ jtwc_wp WP221990 25.8000 127.300 90 2 25.6000 127.300 5 80 950 9 90 90 9 275 275 0 25.8000 127.200 4 77 955 25.8000 127.200 T 75 960 9 344
1990271N13153 1990 94 WP MM HATTIE 1990-10-05 15:00:00 TS 26.2444 127.099 main 528 527 PPPP__________ WP221990 26.1925 127.178 90 2 26.1775 127.128 5 80 950 9 95 85 9 275 275 26.3075 127.085 4 77 955 26.3000 127.005 T 75 960 10 347
1990271N13153 1990 94 WP MM HATTIE 1990-10-05 18:00:00 TS 26.7500 127.000 80 950 tokyo main 538 538 OOOO__________ jtwc_wp WP221990 26.6000 127.100 90 2 26.8000 127.000 5 80 950 1 100 80 9 275 275 0 26.8000 127.000 4 77 955 26.8000 126.900 T 75 960 9 353
1990271N13153 1990 94 WP MM HATTIE 1990-10-05 21:00:00 TS 27.1637 126.977 main 537 516 PPPP__________ WP221990 27.0000 127.070 87 2 27.2524 126.962 5 80 950 1 100 90 9 287 287 27.1725 126.970 4 77 955 27.2299 126.905 T 75 960 8 2
1990271N13153 1990 94 WP MM HATTIE 1990-10-06 00:00:00 TS 27.5250 127.025 80 950 tokyo main 516 474 OOOO__________ jtwc_wp WP221990 27.4000 127.100 85 2 27.6000 127.000 5 80 950 9 100 100 9 300 300 0 27.5000 127.000 4 77 955 27.6000 127.000 T 75 960 7 10
1990271N13153 1990 94 WP MM HATTIE 1990-10-06 03:00:00 TS 27.8725 127.108 main 474 442 PPPP__________ WP221990 27.8300 127.177 82 1 27.8649 127.063 5 80 950 9 112 112 9 325 325 27.8649 127.063 4 77 955 27.9300 127.127 T 72 962 7 17
1990271N13153 1990 94 WP MM HATTIE 1990-10-06 06:00:00 TS 28.1750 127.250 80 950 tokyo main 436 412 OOOO__________ jtwc_wp WP221990 28.2000 127.300 80 1 28.1000 127.200 5 80 950 9 125 125 9 350 350 0 28.2000 127.200 4 77 955 28.2000 127.300 T 70 965 6 29
1990271N13153 1990 94 WP MM HATTIE 1990-10-06 09:00:00 TS 28.4369 127.457 main 406 376 PPPP__________ WP221990 28.4225 127.435 77 1 28.4151 127.442 5 77 952 9 125 112 9 350 350 28.4801 127.442 4 77 957 28.4301 127.507 T 65 967 6 38
1990271N13153 1990 94 WP MM HATTIE 1990-10-06 12:00:00 TS 28.6500 127.675 75 955 tokyo main 368 353 OOOO__________ jtwc_wp WP221990 28.6000 127.600 75 1 28.7000 127.700 5 75 955 1 125 100 9 350 350 0 28.7000 127.700 4 77 960 28.6000 127.700 STS 60 970 5 41
1990271N13153 1990 94 WP MM HATTIE 1990-10-06 15:00:00 TS 28.8256 127.838 main 353 323 PPPP__________ WP221990 28.8575 127.792 72 1 28.8649 127.873 5 72 960 1 102 90 9 350 300 28.8574 127.873 4 72 965 28.7224 127.815 STS 57 972 4 39
1990271N13153 1990 94 WP MM HATTIE 1990-10-06 18:00:00 TS 28.9750 127.975 70 965 tokyo main 323 309 OOOO__________ jtwc_wp WP221990 29.1000 128.000 70 1 29.0000 128.000 5 70 965 9 80 80 6 350 250 0 29.0000 128.000 4 68 970 28.8000 127.900 STS 55 975 4 35
1990271N13153 1990 94 WP MM HATTIE 1990-10-06 21:00:00 TS 29.1230 128.080 main 309 285 PPPP__________ WP221990 29.2574 128.185 67 1 29.2074 128.085 5 67 967 9 75 75 6 350 250 29.2074 128.085 4 63 972 28.8198 127.963 STS 50 977 4 36
1990271N13153 1990 94 WP MM HATTIE 1990-10-07 00:00:00 TS 29.2750 128.225 65 970 tokyo main 285 264 OOOO__________ jtwc_wp WP221990 29.4000 128.400 65 1 29.4000 128.200 5 65 970 9 70 70 6 350 250 0 29.4000 128.200 3 58 975 28.9000 128.100 TS 45 980 4 47
1990271N13153 1990 94 WP MM HATTIE 1990-10-07 03:00:00 TS 29.4178 128.446 main 264 223 PPPP__________ WP221990 29.5771 128.641 62 0 29.4772 128.383 5 62 972 9 65 65 6 350 250 29.4772 128.383 3 58 977 29.1398 128.375 TS 45 980 6 55
1990271N13153 1990 94 WP MM HATTIE 1990-10-07 06:00:00 TS 29.6250 128.800 60 975 tokyo main 223 173 OOOO__________ jtwc_wp WP221990 29.8000 129.000 60 0 29.6000 128.700 4 60 975 9 60 60 6 350 250 0 29.6000 128.700 3 58 980 29.5000 128.800 TS 45 980 9 55
1990271N13153 1990 94 WP MM HATTIE 1990-10-07 09:00:00 TS 29.9231 129.279 main 168 104 PPPP__________ WP221990 30.0472 129.519 60 0 29.8742 129.139 4 60 975 9 50 50 6 350 250 29.8742 129.139 3 53 982 29.8970 129.319 TS 47 977 12 54
1990271N13153 1990 94 WP MM HATTIE 1990-10-07 12:00:00 TS 30.3500 129.950 60 975 tokyo main 91 11 OOOO__________ jtwc_wp WP221990 30.4000 130.200 60 0 30.3000 129.800 4 60 975 9 40 40 6 350 250 0 30.3000 129.800 3 48 985 30.4000 130.000 STS 50 975 16 53
1990271N13153 1990 94 WP MM HATTIE 1990-10-07 15:00:00 TS 30.8874 130.786 main 14 9 PPPP__________ WP221990 30.8968 130.976 57 0 30.8245 130.689 4 60 975 9 40 40 6 350 250 30.8245 130.689 3 48 985 31.0036 130.789 STS 50 975 20 53
1990271N13153 1990 94 WP MM HATTIE 1990-10-07 18:00:00 TS 31.5500 131.825 60 975 tokyo main 36 36 OOOO__________ jtwc_wp WP221990 31.5000 131.900 55 0 31.5000 131.800 4 60 975 9 40 40 6 350 250 0 31.5000 131.800 3 48 985 31.7000 131.800 STS 50 975 23 53
1990271N13153 1990 94 WP MM HATTIE 1990-10-07 21:00:00 TS 32.2889 132.967 main 44 22 PPPP__________ WP221990 32.1020 132.869 52 0 32.3172 132.975 4 57 978 9 40 40 6 325 275 32.3186 133.011 3 43 985 32.4179 133.011 STS 47 977 26 54
1990271N13153 1990 94 WP MM HATTIE 1990-10-08 00:00:00 TS 33.0933 134.340 55 982 tokyo main 14 0 OOOO__________ jtwc_wp WP221990 32.8000 134.100 50 0 33.2000 134.400 4 55 982 9 40 40 9 300 300 0 33.2000 134.400 2 38 985 33.2000 134.500 TS 45 980 29 57
1990271N13153 1990 94 WP MM HATTIE 1990-10-08 03:00:00 TS 33.8464 135.862 main 0 0 PPPP__________ WP221990 33.5730 135.683 47 0 33.9185 135.971 4 50 985 9 9 300 300 33.9500 135.730 2 33 987 34.0419 136.263 TS 40 982 33 60
1990271N13153 1990 94 WP MM HATTIE 1990-10-08 06:00:00 TS 34.7333 137.817 45 988 tokyo main 0 0 OOOO__________ jtwc_wp WP221990 34.5000 137.600 45 0 34.8000 138.100 3 45 988 0 9 300 300 0 34.8000 137.600 1 29 990 34.9000 138.200 TS 35 985 44 62
1990271N13153 1990 94 WP MM HATTIE 1990-10-08 09:00:00 MX 35.9078 140.641 994 tokyo main 0 0 POP___________ WP221990 35.6092 139.766 42 0 36.0000 141.000 6 994 0 0 0 35.9650 140.720 1 29 992 TS 53 65
1990271N13153 1990 94 WP MM HATTIE 1990-10-08 12:00:00 MX 36.9778 143.789 996 tokyo main 248 248 OOO___________ jtwc_wp WP221990 36.8000 142.100 40 0 37.0000 144.000 6 996 0 0 0 37.0000 144.000 1 29 995 47 69
1990271N13153 1990 94 WP MM HATTIE 1990-10-08 15:00:00 MX 37.5794 146.135 main 405 405 _PP___________ WP221990 -1 37.5878 146.149 6 997 0 0 37.5710 146.121 1 26 996 35 73
1990271N13153 1990 94 WP MM HATTIE 1990-10-08 18:00:00 MX 38.0000 148.000 998 tokyo main 536 536 _OO___________ -1 38.0000 148.000 6 998 0 0 0 38.0000 148.000 1 23 998 34 75
1990271N13153 1990 94 WP MM HATTIE 1990-10-08 21:00:00 MX 38.4882 150.321 main 659 659 _PP___________ -1 38.4856 150.316 6 999 0 0 38.4909 150.326 1 23 999 40 76
1990271N13153 1990 94 WP MM HATTIE 1990-10-09 00:00:00 MX 39.0000 153.000 1000 tokyo main 780 _OO___________ -1 39.0000 153.000 6 1000 0 0 0 39.0000 153.000 1 23 1000 43 76

デジタル台風データ・検索

IBTrACS Databaseについて

本データベースは、米国NOAAが公開する1842年以降の世界の熱帯低気圧のベストトラックデータアーカイブInternational Best Track Archive for Climate Stewardship (IBTrACS)を、ウェブで閲覧しやすい形式に変換したものです。

最終更新日:2021-10-08